createdAt,value
2023-03-10T00:01:39.729Z,53.60
2023-03-10T00:04:09.001Z,47.53
2023-03-10T00:06:39.516Z,47.70
2023-03-10T00:09:09.256Z,44.30
2023-03-10T00:11:38.762Z,44.50
2023-03-10T00:14:08.004Z,52.78
2023-03-10T00:16:37.315Z,51.65
2023-03-10T00:19:06.595Z,52.00
2023-03-10T00:21:36.732Z,55.33
2023-03-10T00:24:06.125Z,58.33
2023-03-10T00:26:35.465Z,51.88
2023-03-10T00:29:05.784Z,47.45
2023-03-10T00:31:35.732Z,47.38
2023-03-10T00:34:06.101Z,68.28
2023-03-10T00:36:36.040Z,146.73
2023-03-10T00:39:06.377Z,86.15
2023-03-10T00:41:40.078Z,49.22
2023-03-10T00:44:10.604Z,45.22
2023-03-10T00:46:39.867Z,42.70
2023-03-10T00:49:10.135Z,54.30
2023-03-10T00:51:39.309Z,51.90
2023-03-10T00:54:08.524Z,38.63
2023-03-10T00:56:37.915Z,41.78
2023-03-10T00:59:07.985Z,38.47
2023-03-10T01:01:41.448Z,36.40
2023-03-10T01:04:23.064Z,33.88
2023-03-10T01:06:52.331Z,41.40
2023-03-10T01:09:21.554Z,29.77
2023-03-10T01:11:50.819Z,40.45
2023-03-10T01:14:21.301Z,31.15
2023-03-10T01:16:50.587Z,37.35
2023-03-10T01:19:19.855Z,39.92
2023-03-10T01:21:49.191Z,34.00
2023-03-10T01:24:20.860Z,33.70
2023-03-10T01:26:50.104Z,32.10
2023-03-10T01:29:19.569Z,26.75
2023-03-10T01:31:48.750Z,35.03
2023-03-10T01:34:17.903Z,31.38
2023-03-10T01:36:47.021Z,33.20
2023-03-10T01:39:16.164Z,42.78
2023-03-10T01:41:45.285Z,35.50
2023-03-10T01:44:20.128Z,34.08
2023-03-10T01:46:53.180Z,25.50
2023-03-10T01:49:46.233Z,29.05
2023-03-10T01:52:25.988Z,28.52
2023-03-10T01:55:08.127Z,22.55
2023-03-10T01:57:45.646Z,31.58
2023-03-10T02:00:17.093Z,28.88
2023-03-10T02:03:12.474Z,27.45
2023-03-10T02:05:49.153Z,36.63
2023-03-10T02:08:21.065Z,33.25
2023-03-10T02:10:52.873Z,36.03
2023-03-10T02:13:21.923Z,33.30
2023-03-10T02:15:51.497Z,34.47
2023-03-10T02:18:23.307Z,34.95
2023-03-10T02:21:32.001Z,34.72
2023-03-10T02:24:19.985Z,34.55
2023-03-10T02:27:27.171Z,29.25
2023-03-10T02:30:05.054Z,32.55
2023-03-10T02:32:43.185Z,35.08
2023-03-10T02:35:13.596Z,31.95
2023-03-10T02:37:44.927Z,32.50
2023-03-10T02:40:40.924Z,35.22
2023-03-10T02:43:42.479Z,32.72
2023-03-10T02:46:11.863Z,34.53
2023-03-10T02:48:44.803Z,30.50
2023-03-10T02:51:30.378Z,37.03
2023-03-10T02:54:01.299Z,339.67
2023-03-10T02:56:35.306Z,138.27
2023-03-10T02:59:08.436Z,75.85
2023-03-10T03:01:37.658Z,47.10
2023-03-10T03:04:07.192Z,28.63
2023-03-10T03:06:36.885Z,34.75
2023-03-10T03:09:06.187Z,32.05
2023-03-10T03:11:35.416Z,28.83
2023-03-10T03:14:04.548Z,29.67
2023-03-10T03:16:33.695Z,33.78
2023-03-10T03:19:02.851Z,35.25
2023-03-10T03:21:33.371Z,35.03
2023-03-10T03:24:02.470Z,34.40
2023-03-10T03:26:31.601Z,40.05
2023-03-10T03:29:01.297Z,33.45
2023-03-10T03:31:30.437Z,30.50
2023-03-10T03:33:59.604Z,30.02
2023-03-10T03:36:28.768Z,27.25
2023-03-10T03:38:58.172Z,33.30
2023-03-10T03:41:27.352Z,33.65
2023-03-10T03:43:56.458Z,32.58
2023-03-10T03:46:25.690Z,31.95
2023-03-10T03:48:54.882Z,23.95
2023-03-10T03:51:23.931Z,25.38
2023-03-10T03:53:53.164Z,31.02
2023-03-10T03:56:22.281Z,35.05
2023-03-10T03:58:51.388Z,27.27
2023-03-10T04:01:20.790Z,29.48
2023-03-10T04:03:49.977Z,28.77
2023-03-10T04:06:19.327Z,29.10
2023-03-10T04:08:51.457Z,29.23
2023-03-10T04:11:20.896Z,31.88
2023-03-10T04:13:49.993Z,32.88
2023-03-10T04:16:19.245Z,28.80
2023-03-10T04:18:48.441Z,32.65
2023-03-10T04:21:18.553Z,27.98
2023-03-10T04:23:47.862Z,36.15
2023-03-10T04:26:16.936Z,29.27
2023-03-10T04:28:47.511Z,31.98
2023-03-10T04:31:19.530Z,31.30
2023-03-10T04:33:49.191Z,28.35
2023-03-10T04:36:21.533Z,24.20
2023-03-10T04:38:50.706Z,29.73
2023-03-10T04:41:19.955Z,28.70
2023-03-10T04:43:49.143Z,28.70
2023-03-10T04:46:18.918Z,33.05
2023-03-10T04:48:48.806Z,35.30
2023-03-10T04:51:17.930Z,28.90
2023-03-10T04:53:47.056Z,29.30
2023-03-10T04:56:16.493Z,30.33
2023-03-10T04:58:46.021Z,33.22
2023-03-10T05:01:17.450Z,32.95
2023-03-10T05:03:46.697Z,28.25
2023-03-10T05:06:19.725Z,29.40
2023-03-10T05:08:49.354Z,32.33
2023-03-10T05:11:18.859Z,25.90
2023-03-10T05:13:48.423Z,30.63
2023-03-10T05:16:21.265Z,36.60
2023-03-10T05:18:50.437Z,34.33
2023-03-10T05:21:19.628Z,32.92
2023-03-10T05:23:48.870Z,33.22
2023-03-10T05:26:18.784Z,29.05
2023-03-10T05:28:49.129Z,27.55
2023-03-10T05:31:27.150Z,36.53
2023-03-10T05:33:57.103Z,27.20
2023-03-10T05:36:26.541Z,36.40
2023-03-10T05:38:55.763Z,31.80
2023-03-10T05:41:25.170Z,35.45
2023-03-10T05:43:54.387Z,31.85
2023-03-10T05:46:23.641Z,32.53
2023-03-10T05:48:53.017Z,30.50
2023-03-10T05:51:22.489Z,34.55
2023-03-10T05:53:51.734Z,29.90
2023-03-10T05:56:22.270Z,31.80
2023-03-10T05:58:54.168Z,29.33
2023-03-10T06:01:23.397Z,35.67
2023-03-10T06:03:52.644Z,31.50
2023-03-10T06:06:22.015Z,29.17
2023-03-10T06:08:51.396Z,36.00
2023-03-10T06:11:20.763Z,35.90
2023-03-10T06:13:50.049Z,33.85
2023-03-10T06:16:19.482Z,32.88
2023-03-10T06:18:48.764Z,27.33
2023-03-10T06:21:18.047Z,28.92
2023-03-10T06:23:47.334Z,24.90
2023-03-10T06:26:18.780Z,29.95
2023-03-10T06:28:49.037Z,37.35
2023-03-10T06:31:23.242Z,29.63
2023-03-10T06:33:53.379Z,30.02
2023-03-10T06:36:27.039Z,26.85
2023-03-10T06:38:57.010Z,29.55
2023-03-10T06:41:28.880Z,25.48
2023-03-10T06:43:58.166Z,33.08
2023-03-10T06:46:27.553Z,28.33
2023-03-10T06:48:57.191Z,27.23
2023-03-10T06:51:26.398Z,29.25
2023-03-10T06:53:56.151Z,31.58
2023-03-10T06:56:25.626Z,31.30
2023-03-10T06:58:54.780Z,33.35
2023-03-10T07:01:34.491Z,29.45
2023-03-10T07:04:04.350Z,30.48
2023-03-10T07:06:33.801Z,35.55
2023-03-10T07:09:03.015Z,33.05
2023-03-10T07:11:32.806Z,31.27
2023-03-10T07:14:02.181Z,29.05
2023-03-10T07:16:31.507Z,31.92
2023-03-10T07:19:00.712Z,28.70
2023-03-10T07:21:29.906Z,28.00
2023-03-10T07:24:00.457Z,32.03
2023-03-10T07:26:29.942Z,31.83
2023-03-10T07:28:59.551Z,29.42
2023-03-10T07:31:29.482Z,28.20
2023-03-10T07:33:58.582Z,27.48
2023-03-10T07:36:28.151Z,29.15
2023-03-10T07:38:58.073Z,36.97
2023-03-10T07:41:27.372Z,27.50
2023-03-10T07:43:57.202Z,33.88
2023-03-10T07:46:26.424Z,29.13
2023-03-10T07:48:57.309Z,26.73
2023-03-10T07:51:26.726Z,27.80
2023-03-10T07:53:55.798Z,33.28
2023-03-10T07:56:25.249Z,32.38
2023-03-10T07:58:54.447Z,32.45
2023-03-10T08:01:24.227Z,30.88
2023-03-10T08:03:55.286Z,33.45
2023-03-10T08:06:29.542Z,30.75
2023-03-10T08:08:59.254Z,32.40
2023-03-10T08:11:28.643Z,30.92
2023-03-10T08:13:57.814Z,29.92
2023-03-10T08:16:27.635Z,31.48
2023-03-10T08:18:56.896Z,31.67
2023-03-10T08:21:26.033Z,30.92
2023-03-10T08:23:55.159Z,31.50
2023-03-10T08:26:24.274Z,30.80
2023-03-10T08:28:54.120Z,33.15
2023-03-10T08:31:24.092Z,32.42
2023-03-10T08:33:58.211Z,33.42
2023-03-10T08:36:32.622Z,30.83
2023-03-10T08:39:02.283Z,34.67
2023-03-10T08:41:45.237Z,34.00
2023-03-10T08:44:18.918Z,30.85
2023-03-10T08:46:50.839Z,34.75
2023-03-10T08:49:28.029Z,49.83
2023-03-10T08:51:57.299Z,37.78
2023-03-10T08:54:26.460Z,30.27
2023-03-10T08:56:55.730Z,35.53
2023-03-10T08:59:24.814Z,37.47
2023-03-10T09:01:54.056Z,33.58
2023-03-10T09:04:23.368Z,29.25
2023-03-10T09:06:52.714Z,32.78
2023-03-10T09:09:21.817Z,31.15
2023-03-10T09:11:50.970Z,31.08
2023-03-10T09:14:21.131Z,35.20
2023-03-10T09:16:50.828Z,39.22
2023-03-10T09:19:20.056Z,38.63
2023-03-10T09:21:49.292Z,28.30
2023-03-10T09:24:20.950Z,33.00
2023-03-10T09:26:50.295Z,29.13
2023-03-10T09:29:27.023Z,35.97
2023-03-10T09:32:08.498Z,46.90
2023-03-10T09:34:37.840Z,34.17
2023-03-10T09:37:08.495Z,34.75
2023-03-10T09:39:37.822Z,31.77
2023-03-10T09:42:25.478Z,31.63
2023-03-10T09:45:21.525Z,32.92
2023-03-10T09:51:17.773Z,39.40
2023-03-10T09:54:08.721Z,37.70
2023-03-10T09:56:39.309Z,38.53
2023-03-10T09:59:26.301Z,35.55
2023-03-10T10:01:56.348Z,35.28
2023-03-10T10:04:40.639Z,40.78
2023-03-10T10:07:25.621Z,30.88
2023-03-10T10:10:31.362Z,35.47
2023-03-10T10:13:12.260Z,45.22
2023-03-10T10:16:31.667Z,33.72
2023-03-10T10:19:11.385Z,34.25
2023-03-10T10:24:22.064Z,33.35
2023-03-10T10:26:51.239Z,31.48
2023-03-10T10:29:27.052Z,32.38
2023-03-10T10:32:17.566Z,36.20
2023-03-10T10:34:50.157Z,38.75
2023-03-10T10:37:39.375Z,37.53
2023-03-10T10:40:29.358Z,38.33
2023-03-10T10:43:06.745Z,38.05
2023-03-10T10:45:41.684Z,54.53
2023-03-10T10:48:42.070Z,47.97
2023-03-10T10:51:33.461Z,46.05
2023-03-10T10:54:29.980Z,44.47
2023-03-10T10:57:03.565Z,43.17
2023-03-10T10:59:37.360Z,42.30
2023-03-10T11:02:34.875Z,40.05
2023-03-10T11:05:39.618Z,35.90
2023-03-10T11:08:35.842Z,43.42
2023-03-10T11:11:34.964Z,40.67
2023-03-10T11:14:38.176Z,117.72
2023-03-10T11:17:29.546Z,50.80
2023-03-10T11:20:28.392Z,44.95
2023-03-10T11:23:35.822Z,40.75
2023-03-10T11:26:38.462Z,47.03
2023-03-10T11:29:34.852Z,45.97
2023-03-10T11:32:27.315Z,40.70
2023-03-10T11:34:56.596Z,54.25
2023-03-10T11:37:41.606Z,46.20
2023-03-10T11:40:50.594Z,43.72
2023-03-10T11:43:57.982Z,48.67
2023-03-10T11:46:40.361Z,43.50
2023-03-10T11:49:13.321Z,48.72
2023-03-10T11:52:00.132Z,52.65
2023-03-10T11:55:02.895Z,43.50
2023-03-10T11:57:42.951Z,43.13
2023-03-10T12:00:43.673Z,40.60
2023-03-10T12:03:43.521Z,53.65
2023-03-10T12:06:38.122Z,44.35
2023-03-10T12:09:13.105Z,49.25
2023-03-10T12:11:42.386Z,51.83
2023-03-10T12:14:16.060Z,46.95
2023-03-10T12:16:46.817Z,45.97
2023-03-10T12:19:15.979Z,44.88
2023-03-10T12:21:45.624Z,49.47
2023-03-10T12:25:02.238Z,45.58
2023-03-10T12:27:31.755Z,51.65
2023-03-10T12:30:01.999Z,47.20
2023-03-10T12:32:48.658Z,52.47
2023-03-10T12:35:44.481Z,55.67
2023-03-10T12:38:52.000Z,49.85
2023-03-10T12:41:30.291Z,46.42
2023-03-10T12:47:10.903Z,44.83
2023-03-10T12:49:43.246Z,45.75
2023-03-10T12:52:40.679Z,42.17
2023-03-10T12:55:29.157Z,46.70
2023-03-10T12:58:22.072Z,45.20
2023-03-10T13:01:16.279Z,47.58
2023-03-10T13:03:53.968Z,50.50
2023-03-10T13:06:34.480Z,51.40
2023-03-10T13:09:23.032Z,48.65
2023-03-10T13:12:07.086Z,47.03
2023-03-10T13:14:42.451Z,59.08
2023-03-10T13:17:33.849Z,57.33
2023-03-10T13:20:18.334Z,52.03
2023-03-10T13:23:01.059Z,58.38
2023-03-10T13:25:30.501Z,54.92
2023-03-10T13:28:09.595Z,52.55
2023-03-10T13:30:39.245Z,56.33
2023-03-10T13:33:28.327Z,57.97
2023-03-10T13:35:57.537Z,53.30
2023-03-10T13:38:26.783Z,58.95
2023-03-10T13:41:06.042Z,45.40
2023-03-10T13:43:40.550Z,52.15
2023-03-10T13:46:27.398Z,64.95
2023-03-10T13:49:04.790Z,57.50
2023-03-10T13:51:38.252Z,62.70
2023-03-10T13:54:23.549Z,54.45
2023-03-10T13:57:19.006Z,55.90
2023-03-10T13:59:49.633Z,52.40
2023-03-10T14:02:41.137Z,54.78
2023-03-10T14:05:48.397Z,53.45
2023-03-10T14:08:33.727Z,53.40
2023-03-10T14:11:26.655Z,51.20
2023-03-10T14:13:55.864Z,53.30
2023-03-10T14:16:58.037Z,53.72
2023-03-10T14:19:43.774Z,53.75
2023-03-10T14:22:38.954Z,59.45
2023-03-10T14:25:14.725Z,66.50
2023-03-10T14:28:07.678Z,64.90
2023-03-10T14:30:37.264Z,71.57
2023-03-10T14:33:17.136Z,69.03
2023-03-10T14:35:47.149Z,59.50
2023-03-10T14:38:16.964Z,70.32
2023-03-10T14:40:52.758Z,72.45
2023-03-10T14:43:28.751Z,62.58
2023-03-10T14:46:06.832Z,62.33
2023-03-10T14:48:42.866Z,55.67
2023-03-10T14:51:34.572Z,61.70
2023-03-10T14:54:04.926Z,59.60
2023-03-10T14:56:35.123Z,65.75
2023-03-10T14:59:04.537Z,58.38
2023-03-10T15:01:33.797Z,78.20
2023-03-10T15:04:03.017Z,61.03
2023-03-10T15:06:32.240Z,66.45
2023-03-10T15:09:02.144Z,65.00
2023-03-10T15:11:37.460Z,67.72
2023-03-10T15:14:16.766Z,67.00
2023-03-10T15:16:47.027Z,64.30
2023-03-10T15:19:27.660Z,77.47
2023-03-10T15:21:57.171Z,66.78
2023-03-10T15:24:26.402Z,76.65
2023-03-10T15:26:55.610Z,74.65
2023-03-10T15:29:24.923Z,71.03
2023-03-10T15:31:54.171Z,65.63
2023-03-10T15:34:23.341Z,63.15
2023-03-10T15:36:52.630Z,66.80
2023-03-10T15:39:31.161Z,66.82
2023-03-10T15:42:01.611Z,61.65
2023-03-10T15:44:31.226Z,65.13
2023-03-10T15:47:00.470Z,63.90
2023-03-10T15:49:29.796Z,69.43
2023-03-10T15:51:59.376Z,65.15
2023-03-10T15:54:28.586Z,66.93
2023-03-10T15:56:57.851Z,70.57
2023-03-10T15:59:28.688Z,70.82
2023-03-10T16:01:58.107Z,54.20
2023-03-10T16:04:27.393Z,62.40
2023-03-10T16:06:56.560Z,61.65
2023-03-10T16:09:25.729Z,59.95
2023-03-10T16:11:55.061Z,63.72
2023-03-10T16:14:27.207Z,70.57
2023-03-10T16:16:56.601Z,69.35
2023-03-10T16:19:27.332Z,65.78
2023-03-10T16:21:56.624Z,64.45
2023-03-10T16:24:26.033Z,63.47
2023-03-10T16:26:55.236Z,67.80
2023-03-10T16:29:24.861Z,61.85
2023-03-10T16:31:55.116Z,69.07
2023-03-10T16:34:24.290Z,66.25
2023-03-10T16:36:54.459Z,70.53
2023-03-10T16:39:25.228Z,65.75
2023-03-10T16:41:54.403Z,60.53
2023-03-10T16:44:23.563Z,57.67
2023-03-10T16:46:52.829Z,60.60
2023-03-10T16:49:22.060Z,60.50
2023-03-10T16:51:51.153Z,56.50
2023-03-10T16:54:23.297Z,58.42
2023-03-10T16:56:57.902Z,62.17
2023-03-10T16:59:27.408Z,59.75
2023-03-10T17:01:56.497Z,57.88
2023-03-10T17:04:25.916Z,64.47
2023-03-10T17:06:55.187Z,69.90
2023-03-10T17:09:24.388Z,63.72
2023-03-10T17:11:55.585Z,62.20
2023-03-10T17:14:25.229Z,71.00
2023-03-10T17:16:56.933Z,71.40
2023-03-10T17:19:30.723Z,81.28
2023-03-10T17:22:00.363Z,87.20
2023-03-10T17:24:30.467Z,70.32
2023-03-10T17:26:59.640Z,76.45
2023-03-10T17:29:28.811Z,81.57
2023-03-10T17:31:57.951Z,68.70
2023-03-10T17:34:28.085Z,65.28
2023-03-10T17:36:57.270Z,69.53
2023-03-10T17:39:28.527Z,71.13
2023-03-10T17:41:57.722Z,72.57
2023-03-10T17:44:26.952Z,75.15
2023-03-10T17:46:57.211Z,69.57
2023-03-10T17:49:26.343Z,70.40
2023-03-10T17:51:55.458Z,67.20
2023-03-10T17:54:24.729Z,63.35
2023-03-10T17:56:54.037Z,68.13
2023-03-10T17:59:23.119Z,69.65
2023-03-10T18:01:52.293Z,77.03
2023-03-10T18:04:21.491Z,66.97
2023-03-10T18:06:50.615Z,61.63
2023-03-10T18:09:19.691Z,79.75
2023-03-10T18:11:48.826Z,67.68
2023-03-10T18:14:17.996Z,67.32
2023-03-10T18:16:47.136Z,69.55
2023-03-10T18:19:22.139Z,66.03
2023-03-10T18:21:53.407Z,62.28
2023-03-10T18:24:23.405Z,67.30
2023-03-10T18:26:52.740Z,72.95
2023-03-10T18:29:22.545Z,79.40
2023-03-10T18:31:51.678Z,69.82
2023-03-10T18:34:21.145Z,72.05
2023-03-10T18:36:53.385Z,64.07
2023-03-10T18:39:22.486Z,69.20
2023-03-10T18:41:56.144Z,71.72
2023-03-10T18:44:25.232Z,72.25
2023-03-10T18:46:54.365Z,76.70
2023-03-10T18:49:23.429Z,77.13
2023-03-10T18:51:52.636Z,74.00
2023-03-10T18:54:21.760Z,84.38
2023-03-10T18:56:51.049Z,75.57
2023-03-10T18:59:20.176Z,80.18
2023-03-10T19:01:49.416Z,82.05
2023-03-10T19:04:19.375Z,81.38
2023-03-10T19:06:48.796Z,73.60
2023-03-10T19:09:20.228Z,82.95
2023-03-10T19:11:50.997Z,76.15
2023-03-10T19:14:20.122Z,74.15
2023-03-10T19:16:51.246Z,73.68
2023-03-10T19:19:20.386Z,74.80
2023-03-10T19:21:49.571Z,82.22
2023-03-10T19:24:18.858Z,75.35
2023-03-10T19:26:48.826Z,75.85
2023-03-10T19:29:18.731Z,78.80
2023-03-10T19:31:48.259Z,81.22
2023-03-10T19:34:18.529Z,82.15
2023-03-10T19:36:47.849Z,70.85
2023-03-10T19:39:17.974Z,79.32
2023-03-10T19:41:47.225Z,73.68
2023-03-10T19:44:16.405Z,77.30
2023-03-10T19:46:45.717Z,82.80
2023-03-10T19:49:14.998Z,82.43
2023-03-10T19:51:44.156Z,80.70
2023-03-10T19:54:13.474Z,84.00
2023-03-10T19:56:42.696Z,88.25
2023-03-10T19:59:12.004Z,84.95
2023-03-10T20:01:43.059Z,78.70
2023-03-10T20:04:13.038Z,76.05
2023-03-10T20:06:42.755Z,73.97
2023-03-10T20:09:12.490Z,71.72
2023-03-10T20:11:43.128Z,74.25
2023-03-10T20:14:12.618Z,67.45
2023-03-10T20:16:41.887Z,71.68
2023-03-10T20:19:11.533Z,77.30
2023-03-10T20:21:42.538Z,77.68
2023-03-10T20:24:11.728Z,84.70
2023-03-10T20:26:40.951Z,71.18
2023-03-10T20:29:10.335Z,70.00
2023-03-10T20:31:39.734Z,83.90
2023-03-10T20:34:16.503Z,72.82
2023-03-10T20:36:46.667Z,76.72
2023-03-10T20:39:15.883Z,82.43
2023-03-10T20:41:45.215Z,78.80
2023-03-10T20:44:15.155Z,85.63
2023-03-10T20:46:46.195Z,89.13
2023-03-10T20:49:15.467Z,78.82
2023-03-10T20:51:44.645Z,73.88
2023-03-10T20:54:13.888Z,76.05
2023-03-10T20:56:43.142Z,77.25
2023-03-10T20:59:13.083Z,78.28
2023-03-10T21:01:43.420Z,90.22
2023-03-10T21:04:12.763Z,75.25
2023-03-10T21:06:42.029Z,76.47
2023-03-10T21:09:11.425Z,83.40
2023-03-10T21:11:41.577Z,77.10
2023-03-10T21:14:10.745Z,79.43
2023-03-10T21:16:42.973Z,77.93
2023-03-10T21:19:14.805Z,86.15
2023-03-10T21:21:44.112Z,80.68
2023-03-10T21:24:13.649Z,78.90
2023-03-10T21:26:42.868Z,83.63
2023-03-10T21:29:12.376Z,84.38
2023-03-10T21:31:42.317Z,79.97
2023-03-10T21:34:11.418Z,87.22
2023-03-10T21:36:40.567Z,72.95
2023-03-10T21:39:09.996Z,80.18
2023-03-10T21:41:39.138Z,78.40
2023-03-10T21:44:08.500Z,85.53
2023-03-10T21:46:37.801Z,81.75
2023-03-10T21:49:06.984Z,81.05
2023-03-10T21:51:37.208Z,86.88
2023-03-10T21:54:06.500Z,80.07
2023-03-10T21:56:37.536Z,79.47
2023-03-10T21:59:08.310Z,82.07
2023-03-10T22:01:37.682Z,84.22
2023-03-10T22:04:06.878Z,87.07
2023-03-10T22:06:36.024Z,78.30
2023-03-10T22:09:05.652Z,76.38
2023-03-10T22:11:35.173Z,81.63
2023-03-10T22:14:04.781Z,88.72
2023-03-10T22:16:34.063Z,80.18
2023-03-10T22:19:03.333Z,79.25
2023-03-10T22:21:32.520Z,74.35
2023-03-10T22:24:01.600Z,80.47
2023-03-10T22:26:30.696Z,75.32
2023-03-10T22:29:01.333Z,81.20
2023-03-10T22:31:30.564Z,78.07
2023-03-10T22:33:59.662Z,85.53
2023-03-10T22:36:29.252Z,75.88
2023-03-10T22:38:58.509Z,86.15
2023-03-10T22:41:28.836Z,82.40
2023-03-10T22:43:58.081Z,83.35
2023-03-10T22:46:27.197Z,86.60
2023-03-10T22:48:56.261Z,84.25
2023-03-10T22:51:25.444Z,87.72
2023-03-10T22:53:54.700Z,82.72
2023-03-10T22:56:23.998Z,88.78
2023-03-10T22:58:53.081Z,88.00
2023-03-10T23:01:22.738Z,81.05
2023-03-10T23:03:51.953Z,94.88
2023-03-10T23:06:21.302Z,89.15
2023-03-10T23:08:50.604Z,91.13
2023-03-10T23:11:19.689Z,91.07
2023-03-10T23:13:49.168Z,87.00
2023-03-10T23:16:20.595Z,84.30
2023-03-10T23:18:49.773Z,93.32
2023-03-10T23:21:18.976Z,89.20
2023-03-10T23:23:49.085Z,89.28
2023-03-10T23:26:18.178Z,91.90
2023-03-10T23:28:48.347Z,87.28
2023-03-10T23:31:18.242Z,92.45
2023-03-10T23:33:47.876Z,88.65
2023-03-10T23:36:16.965Z,81.10
2023-03-10T23:38:46.063Z,84.85
2023-03-10T23:41:15.476Z,85.20
2023-03-10T23:43:44.567Z,79.80
2023-03-10T23:46:13.867Z,83.38
2023-03-10T23:48:43.042Z,82.85
2023-03-10T23:51:23.882Z,78.95
2023-03-10T23:53:53.006Z,73.40
2023-03-10T23:56:22.184Z,80.88
2023-03-10T23:58:51.366Z,84.20
